Terminal Aerodrome Forecast
Issued by NWS Chicago, IL

Home | Current Version | Previous Version | Text Only | Print | Product List | Glossary Off
Versions: 1 2 3 4 5 6 7 8 9 10 11 12 13 14 15 16 17 18 19 20

141
FTUS43 KLOT 210850 AAA
TAFRFD
TAF AMD
KRFD 210850Z 2109/2206 VRB04KT P6SM BKN150
     FM211600 01007KT P6SM FEW060 SCT200
     FM220000 VRB02KT P6SM SKC=

USA.gov is the U.S. government's official web portal to all federal, state and local government web resources and services.